sensor_id;sensor_type;location;lat;lon;timestamp;P1;durP1;ratioP1;P2;durP2;ratioP2
16296;SDS011;8256;56.144;13.394;2023-05-02T00:00:04;0.80;;;0.17;;
16296;SDS011;8256;56.144;13.394;2023-05-02T00:02:49;0.68;;;0.25;;
16296;SDS011;8256;56.144;13.394;2023-05-02T00:05:35;2.05;;;0.85;;
16296;SDS011;8256;56.144;13.394;2023-05-02T00:08:21;0.47;;;0.10;;
16296;SDS011;8256;56.144;13.394;2023-05-02T00:11:06;0.98;;;0.28;;
16296;SDS011;8256;56.144;13.394;2023-05-02T00:13:52;0.67;;;0.20;;
16296;SDS011;8256;56.144;13.394;2023-05-02T00:16:37;0.77;;;0.25;;
16296;SDS011;8256;56.144;13.394;2023-05-02T00:19:23;1.05;;;0.30;;
16296;SDS011;8256;56.144;13.394;2023-05-02T00:22:09;1.83;;;0.90;;
16296;SDS011;8256;56.144;13.394;2023-05-02T00:24:57;0.52;;;0.10;;
16296;SDS011;8256;56.144;13.394;2023-05-02T00:27:43;1.53;;;0.27;;
16296;SDS011;8256;56.144;13.394;2023-05-02T00:30:30;1.63;;;0.32;;
16296;SDS011;8256;56.144;13.394;2023-05-02T00:33:16;1.13;;;0.35;;
16296;SDS011;8256;56.144;13.394;2023-05-02T00:36:02;1.00;;;0.38;;
16296;SDS011;8256;56.144;13.394;2023-05-02T00:38:47;1.40;;;0.45;;
16296;SDS011;8256;56.144;13.394;2023-05-02T00:41:33;1.40;;;0.40;;
16296;SDS011;8256;56.144;13.394;2023-05-02T00:44:19;2.47;;;1.08;;
16296;SDS011;8256;56.144;13.394;2023-05-02T00:47:04;2.10;;;0.50;;
16296;SDS011;8256;56.144;13.394;2023-05-02T00:49:50;0.70;;;0.22;;
16296;SDS011;8256;56.144;13.394;2023-05-02T00:52:36;0.70;;;0.30;;
16296;SDS011;8256;56.144;13.394;2023-05-02T00:55:21;0.67;;;0.20;;
16296;SDS011;8256;56.144;13.394;2023-05-02T00:58:08;1.98;;;0.43;;
16296;SDS011;8256;56.144;13.394;2023-05-02T01:01:07;1.02;;;0.30;;
16296;SDS011;8256;56.144;13.394;2023-05-02T01:04:17;2.42;;;0.90;;
16296;SDS011;8256;56.144;13.394;2023-05-02T01:07:09;1.08;;;0.65;;
16296;SDS011;8256;56.144;13.394;2023-05-02T01:10:12;0.60;;;0.20;;
16296;SDS011;8256;56.144;13.394;2023-05-02T01:13:03;0.88;;;0.30;;
16296;SDS011;8256;56.144;13.394;2023-05-02T01:15:50;2.28;;;0.50;;
16296;SDS011;8256;56.144;13.394;2023-05-02T01:18:37;1.52;;;0.52;;
16296;SDS011;8256;56.144;13.394;2023-05-02T01:21:25;0.60;;;0.20;;
16296;SDS011;8256;56.144;13.394;2023-05-02T01:24:14;0.70;;;0.20;;
16296;SDS011;8256;56.144;13.394;2023-05-02T01:27:21;1.58;;;0.52;;
16296;SDS011;8256;56.144;13.394;2023-05-02T01:30:09;0.82;;;0.30;;
16296;SDS011;8256;56.144;13.394;2023-05-02T01:32:56;0.90;;;0.20;;
16296;SDS011;8256;56.144;13.394;2023-05-02T01:35:42;1.77;;;0.32;;
16296;SDS011;8256;56.144;13.394;2023-05-02T01:38:29;5.00;;;1.53;;
16296;SDS011;8256;56.144;13.394;2023-05-02T01:41:15;3.05;;;0.30;;
16296;SDS011;8256;56.144;13.394;2023-05-02T01:44:02;0.40;;;0.10;;
16296;SDS011;8256;56.144;13.394;2023-05-02T01:46:49;2.03;;;1.05;;
16296;SDS011;8256;56.144;13.394;2023-05-02T01:49:36;0.88;;;0.28;;
16296;SDS011;8256;56.144;13.394;2023-05-02T01:52:22;0.70;;;0.20;;
16296;SDS011;8256;56.144;13.394;2023-05-02T01:55:09;1.48;;;0.10;;
16296;SDS011;8256;56.144;13.394;2023-05-02T01:57:57;0.40;;;0.10;;
16296;SDS011;8256;56.144;13.394;2023-05-02T02:00:42;0.70;;;0.20;;
16296;SDS011;8256;56.144;13.394;2023-05-02T02:03:29;0.40;;;0.10;;
16296;SDS011;8256;56.144;13.394;2023-05-02T02:06:15;0.60;;;0.10;;
16296;SDS011;8256;56.144;13.394;2023-05-02T02:09:02;2.30;;;0.70;;
16296;SDS011;8256;56.144;13.394;2023-05-02T02:11:50;3.03;;;0.35;;
16296;SDS011;8256;56.144;13.394;2023-05-02T02:14:37;0.30;;;0.10;;
16296;SDS011;8256;56.144;13.394;2023-05-02T02:17:25;0.30;;;0.00;;
16296;SDS011;8256;56.144;13.394;2023-05-02T02:20:11;0.40;;;0.10;;
16296;SDS011;8256;56.144;13.394;2023-05-02T02:22:58;0.47;;;0.13;;
16296;SDS011;8256;56.144;13.394;2023-05-02T02:25:45;0.30;;;0.10;;
16296;SDS011;8256;56.144;13.394;2023-05-02T02:28:30;0.93;;;0.20;;
16296;SDS011;8256;56.144;13.394;2023-05-02T02:31:16;0.65;;;0.25;;
16296;SDS011;8256;56.144;13.394;2023-05-02T02:34:02;2.40;;;0.30;;
16296;SDS011;8256;56.144;13.394;2023-05-02T02:36:59;0.30;;;0.00;;
16296;SDS011;8256;56.144;13.394;2023-05-02T02:39:48;0.73;;;0.50;;
16296;SDS011;8256;56.144;13.394;2023-05-02T02:42:49;1.13;;;0.68;;
16296;SDS011;8256;56.144;13.394;2023-05-02T02:48:42;1.03;;;0.17;;
16296;SDS011;8256;56.144;13.394;2023-05-02T02:51:30;0.70;;;0.25;;
16296;SDS011;8256;56.144;13.394;2023-05-02T02:54:27;0.65;;;0.13;;
16296;SDS011;8256;56.144;13.394;2023-05-02T02:57:16;5.07;;;0.20;;
16296;SDS011;8256;56.144;13.394;2023-05-02T03:00:07;0.60;;;0.15;;
16296;SDS011;8256;56.144;13.394;2023-05-02T03:02:56;4.17;;;0.80;;
16296;SDS011;8256;56.144;13.394;2023-05-02T03:05:42;0.40;;;0.10;;
16296;SDS011;8256;56.144;13.394;2023-05-02T03:08:28;0.47;;;0.10;;
16296;SDS011;8256;56.144;13.394;2023-05-02T03:11:22;0.73;;;0.10;;
16296;SDS011;8256;56.144;13.394;2023-05-02T03:14:08;1.80;;;0.57;;
16296;SDS011;8256;56.144;13.394;2023-05-02T03:16:53;0.50;;;0.20;;
16296;SDS011;8256;56.144;13.394;2023-05-02T03:19:40;0.50;;;0.10;;
16296;SDS011;8256;56.144;13.394;2023-05-02T03:22:25;0.60;;;0.20;;
16296;SDS011;8256;56.144;13.394;2023-05-02T03:25:11;1.35;;;0.65;;
16296;SDS011;8256;56.144;13.394;2023-05-02T03:27:57;0.50;;;0.10;;
16296;SDS011;8256;56.144;13.394;2023-05-02T03:30:42;2.60;;;0.50;;
16296;SDS011;8256;56.144;13.394;2023-05-02T03:33:28;0.55;;;0.20;;
16296;SDS011;8256;56.144;13.394;2023-05-02T03:36:14;0.40;;;0.10;;
16296;SDS011;8256;56.144;13.394;2023-05-02T03:39:00;0.40;;;0.10;;
16296;SDS011;8256;56.144;13.394;2023-05-02T03:41:46;0.40;;;0.10;;
16296;SDS011;8256;56.144;13.394;2023-05-02T03:44:32;0.60;;;0.10;;
16296;SDS011;8256;56.144;13.394;2023-05-02T03:50:17;0.60;;;0.10;;
16296;SDS011;8256;56.144;13.394;2023-05-02T03:53:02;0.75;;;0.30;;
16296;SDS011;8256;56.144;13.394;2023-05-02T03:55:48;1.40;;;0.65;;
16296;SDS011;8256;56.144;13.394;2023-05-02T03:58:37;1.30;;;0.30;;
16296;SDS011;8256;56.144;13.394;2023-05-02T04:01:23;0.50;;;0.10;;
16296;SDS011;8256;56.144;13.394;2023-05-02T04:04:09;0.70;;;0.35;;
16296;SDS011;8256;56.144;13.394;2023-05-02T04:06:55;0.40;;;0.10;;
16296;SDS011;8256;56.144;13.394;2023-05-02T04:09:42;0.40;;;0.10;;
16296;SDS011;8256;56.144;13.394;2023-05-02T04:12:31;0.50;;;0.10;;
16296;SDS011;8256;56.144;13.394;2023-05-02T04:15:16;0.50;;;0.10;;
16296;SDS011;8256;56.144;13.394;2023-05-02T04:18:02;0.40;;;0.10;;
16296;SDS011;8256;56.144;13.394;2023-05-02T04:20:51;0.50;;;0.10;;
16296;SDS011;8256;56.144;13.394;2023-05-02T04:23:37;0.30;;;0.00;;
16296;SDS011;8256;56.144;13.394;2023-05-02T04:26:23;0.47;;;0.10;;
16296;SDS011;8256;56.144;13.394;2023-05-02T04:29:17;0.30;;;0.10;;
16296;SDS011;8256;56.144;13.394;2023-05-02T04:32:02;0.30;;;0.00;;
16296;SDS011;8256;56.144;13.394;2023-05-02T04:34:48;1.60;;;0.22;;
16296;SDS011;8256;56.144;13.394;2023-05-02T04:37:34;0.52;;;0.20;;
16296;SDS011;8256;56.144;13.394;2023-05-02T04:40:20;0.40;;;0.10;;
16296;SDS011;8256;56.144;13.394;2023-05-02T04:43:06;0.40;;;0.10;;
16296;SDS011;8256;56.144;13.394;2023-05-02T04:45:51;0.40;;;0.10;;
16296;SDS011;8256;56.144;13.394;2023-05-02T04:48:37;0.40;;;0.10;;
16296;SDS011;8256;56.144;13.394;2023-05-02T04:51:26;0.40;;;0.10;;
16296;SDS011;8256;56.144;13.394;2023-05-02T04:54:13;0.30;;;0.00;;
16296;SDS011;8256;56.144;13.394;2023-05-02T04:57:00;0.40;;;0.10;;
16296;SDS011;8256;56.144;13.394;2023-05-02T04:59:47;0.40;;;0.10;;
16296;SDS011;8256;56.144;13.394;2023-05-02T05:02:33;0.30;;;0.00;;
16296;SDS011;8256;56.144;13.394;2023-05-02T05:05:19;0.50;;;0.10;;
16296;SDS011;8256;56.144;13.394;2023-05-02T05:08:04;0.40;;;0.10;;
16296;SDS011;8256;56.144;13.394;2023-05-02T05:10:50;0.50;;;0.10;;
16296;SDS011;8256;56.144;13.394;2023-05-02T05:13:36;0.40;;;0.10;;
16296;SDS011;8256;56.144;13.394;2023-05-02T05:16:21;0.35;;;0.05;;
16296;SDS011;8256;56.144;13.394;2023-05-02T05:19:07;0.40;;;0.10;;
16296;SDS011;8256;56.144;13.394;2023-05-02T05:21:53;0.40;;;0.10;;
16296;SDS011;8256;56.144;13.394;2023-05-02T05:24:38;2.10;;;0.82;;
16296;SDS011;8256;56.144;13.394;2023-05-02T05:27:24;0.50;;;0.10;;
16296;SDS011;8256;56.144;13.394;2023-05-02T05:30:09;0.40;;;0.10;;
16296;SDS011;8256;56.144;13.394;2023-05-02T05:32:55;0.30;;;0.00;;
16296;SDS011;8256;56.144;13.394;2023-05-02T05:35:42;0.57;;;0.10;;
16296;SDS011;8256;56.144;13.394;2023-05-02T05:38:28;0.40;;;0.10;;
16296;SDS011;8256;56.144;13.394;2023-05-02T05:41:14;0.43;;;0.10;;
16296;SDS011;8256;56.144;13.394;2023-05-02T05:43:59;0.40;;;0.10;;
16296;SDS011;8256;56.144;13.394;2023-05-02T05:46:45;0.40;;;0.10;;
16296;SDS011;8256;56.144;13.394;2023-05-02T05:49:31;0.43;;;0.13;;
16296;SDS011;8256;56.144;13.394;2023-05-02T05:52:16;0.40;;;0.10;;
16296;SDS011;8256;56.144;13.394;2023-05-02T05:55:02;0.50;;;0.10;;
16296;SDS011;8256;56.144;13.394;2023-05-02T05:57:48;0.40;;;0.10;;
16296;SDS011;8256;56.144;13.394;2023-05-02T06:00:34;0.60;;;0.10;;
16296;SDS011;8256;56.144;13.394;2023-05-02T06:03:20;0.40;;;0.10;;
16296;SDS011;8256;56.144;13.394;2023-05-02T06:06:05;0.40;;;0.10;;
16296;SDS011;8256;56.144;13.394;2023-05-02T06:08:51;0.40;;;0.10;;
16296;SDS011;8256;56.144;13.394;2023-05-02T06:11:37;0.40;;;0.10;;
16296;SDS011;8256;56.144;13.394;2023-05-02T06:14:22;0.40;;;0.10;;
16296;SDS011;8256;56.144;13.394;2023-05-02T06:17:08;0.43;;;0.10;;
16296;SDS011;8256;56.144;13.394;2023-05-02T06:19:54;0.47;;;0.15;;
16296;SDS011;8256;56.144;13.394;2023-05-02T06:22:39;0.80;;;0.20;;
16296;SDS011;8256;56.144;13.394;2023-05-02T06:25:25;0.40;;;0.10;;
16296;SDS011;8256;56.144;13.394;2023-05-02T06:28:11;0.40;;;0.10;;
16296;SDS011;8256;56.144;13.394;2023-05-02T06:31:00;0.40;;;0.10;;
16296;SDS011;8256;56.144;13.394;2023-05-02T06:33:46;0.40;;;0.10;;
16296;SDS011;8256;56.144;13.394;2023-05-02T06:36:31;0.30;;;0.00;;
16296;SDS011;8256;56.144;13.394;2023-05-02T06:39:17;0.40;;;0.10;;
16296;SDS011;8256;56.144;13.394;2023-05-02T06:42:02;0.30;;;0.10;;
16296;SDS011;8256;56.144;13.394;2023-05-02T06:44:49;0.47;;;0.10;;
16296;SDS011;8256;56.144;13.394;2023-05-02T06:47:35;0.40;;;0.10;;
16296;SDS011;8256;56.144;13.394;2023-05-02T06:50:21;0.45;;;0.10;;
16296;SDS011;8256;56.144;13.394;2023-05-02T06:53:06;0.30;;;0.10;;
16296;SDS011;8256;56.144;13.394;2023-05-02T06:55:52;0.40;;;0.10;;
16296;SDS011;8256;56.144;13.394;2023-05-02T06:58:38;0.40;;;0.10;;
16296;SDS011;8256;56.144;13.394;2023-05-02T07:01:23;0.40;;;0.10;;
16296;SDS011;8256;56.144;13.394;2023-05-02T07:04:09;0.50;;;0.10;;
16296;SDS011;8256;56.144;13.394;2023-05-02T07:06:54;0.40;;;0.10;;
16296;SDS011;8256;56.144;13.394;2023-05-02T07:09:40;0.40;;;0.10;;
16296;SDS011;8256;56.144;13.394;2023-05-02T07:12:25;0.40;;;0.10;;
16296;SDS011;8256;56.144;13.394;2023-05-02T07:15:11;0.40;;;0.10;;
16296;SDS011;8256;56.144;13.394;2023-05-02T07:17:58;0.40;;;0.10;;
16296;SDS011;8256;56.144;13.394;2023-05-02T07:20:43;0.40;;;0.10;;
16296;SDS011;8256;56.144;13.394;2023-05-02T07:23:29;0.40;;;0.10;;
16296;SDS011;8256;56.144;13.394;2023-05-02T07:26:15;0.40;;;0.10;;
16296;SDS011;8256;56.144;13.394;2023-05-02T07:29:03;0.40;;;0.10;;
16296;SDS011;8256;56.144;13.394;2023-05-02T07:31:51;0.82;;;0.20;;
16296;SDS011;8256;56.144;13.394;2023-05-02T07:34:36;0.50;;;0.10;;
16296;SDS011;8256;56.144;13.394;2023-05-02T07:37:22;0.30;;;0.00;;
16296;SDS011;8256;56.144;13.394;2023-05-02T07:40:08;0.60;;;0.10;;
16296;SDS011;8256;56.144;13.394;2023-05-02T07:42:53;0.40;;;0.10;;
16296;SDS011;8256;56.144;13.394;2023-05-02T07:45:39;0.40;;;0.10;;
16296;SDS011;8256;56.144;13.394;2023-05-02T07:48:25;0.40;;;0.10;;
16296;SDS011;8256;56.144;13.394;2023-05-02T07:51:10;0.45;;;0.10;;
16296;SDS011;8256;56.144;13.394;2023-05-02T07:53:56;0.40;;;0.10;;
16296;SDS011;8256;56.144;13.394;2023-05-02T07:56:43;0.45;;;0.10;;
16296;SDS011;8256;56.144;13.394;2023-05-02T07:59:29;0.40;;;0.10;;
16296;SDS011;8256;56.144;13.394;2023-05-02T08:02:15;0.63;;;0.10;;
16296;SDS011;8256;56.144;13.394;2023-05-02T08:05:04;0.30;;;0.00;;
16296;SDS011;8256;56.144;13.394;2023-05-02T08:07:50;0.50;;;0.10;;
16296;SDS011;8256;56.144;13.394;2023-05-02T08:10:35;0.60;;;0.13;;
16296;SDS011;8256;56.144;13.394;2023-05-02T08:13:21;0.40;;;0.10;;
16296;SDS011;8256;56.144;13.394;2023-05-02T08:16:06;0.50;;;0.10;;
16296;SDS011;8256;56.144;13.394;2023-05-02T08:18:53;0.50;;;0.10;;
16296;SDS011;8256;56.144;13.394;2023-05-02T08:21:38;0.40;;;0.10;;
16296;SDS011;8256;56.144;13.394;2023-05-02T08:24:24;0.57;;;0.15;;
16296;SDS011;8256;56.144;13.394;2023-05-02T08:27:09;0.45;;;0.10;;
16296;SDS011;8256;56.144;13.394;2023-05-02T08:29:55;0.40;;;0.10;;
16296;SDS011;8256;56.144;13.394;2023-05-02T08:32:41;0.40;;;0.10;;
16296;SDS011;8256;56.144;13.394;2023-05-02T08:35:29;0.50;;;0.10;;
16296;SDS011;8256;56.144;13.394;2023-05-02T08:38:15;0.43;;;0.10;;
16296;SDS011;8256;56.144;13.394;2023-05-02T08:41:01;0.40;;;0.10;;
16296;SDS011;8256;56.144;13.394;2023-05-02T08:43:47;0.60;;;0.10;;
16296;SDS011;8256;56.144;13.394;2023-05-02T08:46:35;0.60;;;0.10;;
16296;SDS011;8256;56.144;13.394;2023-05-02T08:49:25;1.10;;;0.30;;
16296;SDS011;8256;56.144;13.394;2023-05-02T08:52:12;0.50;;;0.10;;
16296;SDS011;8256;56.144;13.394;2023-05-02T08:54:59;0.50;;;0.10;;
16296;SDS011;8256;56.144;13.394;2023-05-02T08:57:45;0.65;;;0.20;;
16296;SDS011;8256;56.144;13.394;2023-05-02T09:00:32;0.50;;;0.10;;
16296;SDS011;8256;56.144;13.394;2023-05-02T09:06:04;0.70;;;0.20;;
16296;SDS011;8256;56.144;13.394;2023-05-02T09:08:51;0.77;;;0.20;;
16296;SDS011;8256;56.144;13.394;2023-05-02T09:11:37;0.50;;;0.10;;
16296;SDS011;8256;56.144;13.394;2023-05-02T09:14:23;0.40;;;0.10;;
16296;SDS011;8256;56.144;13.394;2023-05-02T09:17:08;0.50;;;0.10;;
16296;SDS011;8256;56.144;13.394;2023-05-02T09:20:00;1.10;;;0.30;;
16296;SDS011;8256;56.144;13.394;2023-05-02T09:22:46;0.50;;;0.13;;
16296;SDS011;8256;56.144;13.394;2023-05-02T09:25:35;0.60;;;0.20;;
16296;SDS011;8256;56.144;13.394;2023-05-02T09:28:20;0.93;;;0.20;;
16296;SDS011;8256;56.144;13.394;2023-05-02T09:31:22;0.97;;;0.20;;
16296;SDS011;8256;56.144;13.394;2023-05-02T09:34:19;0.75;;;0.20;;
16296;SDS011;8256;56.144;13.394;2023-05-02T09:37:05;0.63;;;0.15;;
16296;SDS011;8256;56.144;13.394;2023-05-02T09:40:04;1.02;;;0.15;;
16296;SDS011;8256;56.144;13.394;2023-05-02T09:42:50;0.80;;;0.20;;
16296;SDS011;8256;56.144;13.394;2023-05-02T09:45:36;0.60;;;0.10;;
16296;SDS011;8256;56.144;13.394;2023-05-02T09:48:22;11.35;;;0.25;;
16296;SDS011;8256;56.144;13.394;2023-05-02T09:51:14;0.50;;;0.10;;
16296;SDS011;8256;56.144;13.394;2023-05-02T09:54:01;0.60;;;0.10;;
16296;SDS011;8256;56.144;13.394;2023-05-02T09:56:50;1.02;;;0.30;;
16296;SDS011;8256;56.144;13.394;2023-05-02T09:59:37;0.50;;;0.10;;
16296;SDS011;8256;56.144;13.394;2023-05-02T10:02:27;0.45;;;0.10;;
16296;SDS011;8256;56.144;13.394;2023-05-02T10:05:14;0.70;;;0.17;;
16296;SDS011;8256;56.144;13.394;2023-05-02T10:08:02;0.70;;;0.10;;
16296;SDS011;8256;56.144;13.394;2023-05-02T10:10:55;0.60;;;0.10;;
16296;SDS011;8256;56.144;13.394;2023-05-02T10:13:40;0.70;;;0.20;;
16296;SDS011;8256;56.144;13.394;2023-05-02T10:16:28;0.93;;;0.30;;
16296;SDS011;8256;56.144;13.394;2023-05-02T10:19:16;0.63;;;0.10;;
16296;SDS011;8256;56.144;13.394;2023-05-02T10:22:02;0.63;;;0.13;;
16296;SDS011;8256;56.144;13.394;2023-05-02T10:24:48;0.85;;;0.20;;
16296;SDS011;8256;56.144;13.394;2023-05-02T10:27:34;1.27;;;0.30;;
16296;SDS011;8256;56.144;13.394;2023-05-02T10:30:21;0.65;;;0.13;;
16296;SDS011;8256;56.144;13.394;2023-05-02T10:33:07;1.10;;;0.30;;
16296;SDS011;8256;56.144;13.394;2023-05-02T10:35:53;0.70;;;0.20;;
16296;SDS011;8256;56.144;13.394;2023-05-02T10:38:39;0.90;;;0.20;;
16296;SDS011;8256;56.144;13.394;2023-05-02T10:41:25;1.00;;;0.20;;
16296;SDS011;8256;56.144;13.394;2023-05-02T10:44:12;0.98;;;0.20;;
16296;SDS011;8256;56.144;13.394;2023-05-02T10:46:57;0.93;;;0.20;;
16296;SDS011;8256;56.144;13.394;2023-05-02T10:49:50;0.75;;;0.20;;
16296;SDS011;8256;56.144;13.394;2023-05-02T10:52:37;0.90;;;0.20;;
16296;SDS011;8256;56.144;13.394;2023-05-02T10:55:23;0.70;;;0.10;;
16296;SDS011;8256;56.144;13.394;2023-05-02T11:00:54;0.90;;;0.20;;
16296;SDS011;8256;56.144;13.394;2023-05-02T11:04:00;0.70;;;0.20;;
16296;SDS011;8256;56.144;13.394;2023-05-02T11:09:41;0.70;;;0.20;;
16296;SDS011;8256;56.144;13.394;2023-05-02T11:12:41;0.95;;;0.20;;
16296;SDS011;8256;56.144;13.394;2023-05-02T11:18:13;0.63;;;0.20;;
16296;SDS011;8256;56.144;13.394;2023-05-02T11:21:23;0.82;;;0.20;;
16296;SDS011;8256;56.144;13.394;2023-05-02T11:30:12;0.55;;;0.10;;
16296;SDS011;8256;56.144;13.394;2023-05-02T11:35:48;0.60;;;0.10;;
16296;SDS011;8256;56.144;13.394;2023-05-02T11:38:35;0.80;;;0.10;;
16296;SDS011;8256;56.144;13.394;2023-05-02T11:41:21;1.40;;;0.30;;
16296;SDS011;8256;56.144;13.394;2023-05-02T11:44:07;1.40;;;0.30;;
16296;SDS011;8256;56.144;13.394;2023-05-02T11:46:52;1.23;;;0.20;;
16296;SDS011;8256;56.144;13.394;2023-05-02T11:49:38;1.42;;;0.30;;
16296;SDS011;8256;56.144;13.394;2023-05-02T11:52:23;1.13;;;0.43;;
16296;SDS011;8256;56.144;13.394;2023-05-02T11:55:10;0.80;;;0.35;;
16296;SDS011;8256;56.144;13.394;2023-05-02T11:57:55;0.80;;;0.20;;
16296;SDS011;8256;56.144;13.394;2023-05-02T12:00:41;2.10;;;0.20;;
16296;SDS011;8256;56.144;13.394;2023-05-02T12:03:31;1.13;;;0.30;;
16296;SDS011;8256;56.144;13.394;2023-05-02T12:06:17;0.70;;;0.13;;
16296;SDS011;8256;56.144;13.394;2023-05-02T12:09:07;0.93;;;0.20;;
16296;SDS011;8256;56.144;13.394;2023-05-02T12:11:52;0.80;;;0.20;;
16296;SDS011;8256;56.144;13.394;2023-05-02T12:14:39;0.70;;;0.13;;
16296;SDS011;8256;56.144;13.394;2023-05-02T12:17:25;0.70;;;0.20;;
16296;SDS011;8256;56.144;13.394;2023-05-02T12:20:11;0.70;;;0.10;;
16296;SDS011;8256;56.144;13.394;2023-05-02T12:22:56;2.45;;;0.40;;
16296;SDS011;8256;56.144;13.394;2023-05-02T12:25:42;1.38;;;0.28;;
16296;SDS011;8256;56.144;13.394;2023-05-02T12:28:28;0.98;;;0.22;;
16296;SDS011;8256;56.144;13.394;2023-05-02T12:31:13;2.97;;;0.40;;
16296;SDS011;8256;56.144;13.394;2023-05-02T12:33:59;0.70;;;0.20;;
16296;SDS011;8256;56.144;13.394;2023-05-02T12:36:45;0.90;;;0.30;;
16296;SDS011;8256;56.144;13.394;2023-05-02T12:39:37;0.80;;;0.20;;
16296;SDS011;8256;56.144;13.394;2023-05-02T12:42:24;0.70;;;0.20;;
16296;SDS011;8256;56.144;13.394;2023-05-02T12:45:16;0.88;;;0.20;;
16296;SDS011;8256;56.144;13.394;2023-05-02T12:48:15;0.80;;;0.20;;
16296;SDS011;8256;56.144;13.394;2023-05-02T12:51:01;1.10;;;0.30;;
16296;SDS011;8256;56.144;13.394;2023-05-02T12:53:46;1.30;;;0.30;;
16296;SDS011;8256;56.144;13.394;2023-05-02T12:56:39;1.00;;;0.20;;
16296;SDS011;8256;56.144;13.394;2023-05-02T12:59:25;1.30;;;0.30;;
16296;SDS011;8256;56.144;13.394;2023-05-02T13:02:11;1.30;;;0.30;;
16296;SDS011;8256;56.144;13.394;2023-05-02T13:04:56;1.70;;;0.40;;
16296;SDS011;8256;56.144;13.394;2023-05-02T13:07:42;1.85;;;0.60;;
16296;SDS011;8256;56.144;13.394;2023-05-02T13:10:27;2.28;;;0.70;;
16296;SDS011;8256;56.144;13.394;2023-05-02T13:13:13;2.40;;;0.70;;
16296;SDS011;8256;56.144;13.394;2023-05-02T13:16:00;1.90;;;0.50;;
16296;SDS011;8256;56.144;13.394;2023-05-02T13:18:45;2.25;;;0.70;;
16296;SDS011;8256;56.144;13.394;2023-05-02T13:21:31;2.10;;;0.70;;
16296;SDS011;8256;56.144;13.394;2023-05-02T13:24:16;2.70;;;0.90;;
16296;SDS011;8256;56.144;13.394;2023-05-02T13:27:02;2.20;;;0.80;;
16296;SDS011;8256;56.144;13.394;2023-05-02T13:29:48;2.50;;;0.90;;
16296;SDS011;8256;56.144;13.394;2023-05-02T13:32:33;2.40;;;0.80;;
16296;SDS011;8256;56.144;13.394;2023-05-02T13:35:19;2.60;;;0.90;;
16296;SDS011;8256;56.144;13.394;2023-05-02T13:38:04;2.90;;;1.10;;
16296;SDS011;8256;56.144;13.394;2023-05-02T13:40:50;2.60;;;0.90;;
16296;SDS011;8256;56.144;13.394;2023-05-02T13:43:36;2.97;;;1.10;;
16296;SDS011;8256;56.144;13.394;2023-05-02T13:46:21;2.20;;;0.70;;
16296;SDS011;8256;56.144;13.394;2023-05-02T13:49:07;2.55;;;0.82;;
16296;SDS011;8256;56.144;13.394;2023-05-02T13:51:52;2.47;;;0.88;;
16296;SDS011;8256;56.144;13.394;2023-05-02T13:54:38;2.45;;;0.93;;
16296;SDS011;8256;56.144;13.394;2023-05-02T13:57:23;1.77;;;0.43;;
16296;SDS011;8256;56.144;13.394;2023-05-02T14:00:09;1.90;;;0.50;;
16296;SDS011;8256;56.144;13.394;2023-05-02T14:02:55;1.67;;;0.40;;
16296;SDS011;8256;56.144;13.394;2023-05-02T14:05:40;2.00;;;0.60;;
16296;SDS011;8256;56.144;13.394;2023-05-02T14:08:27;2.20;;;0.68;;
16296;SDS011;8256;56.144;13.394;2023-05-02T14:11:13;2.00;;;0.60;;
16296;SDS011;8256;56.144;13.394;2023-05-02T14:13:59;2.08;;;0.60;;
16296;SDS011;8256;56.144;13.394;2023-05-02T14:16:45;7.07;;;1.08;;
16296;SDS011;8256;56.144;13.394;2023-05-02T14:19:30;2.00;;;0.60;;
16296;SDS011;8256;56.144;13.394;2023-05-02T14:22:16;2.10;;;0.55;;
16296;SDS011;8256;56.144;13.394;2023-05-02T14:25:02;2.30;;;0.60;;
16296;SDS011;8256;56.144;13.394;2023-05-02T14:27:47;3.55;;;0.50;;
16296;SDS011;8256;56.144;13.394;2023-05-02T14:30:33;1.85;;;0.57;;
16296;SDS011;8256;56.144;13.394;2023-05-02T14:33:19;1.85;;;0.63;;
16296;SDS011;8256;56.144;13.394;2023-05-02T14:36:04;1.80;;;0.43;;
16296;SDS011;8256;56.144;13.394;2023-05-02T14:38:50;2.37;;;0.60;;
16296;SDS011;8256;56.144;13.394;2023-05-02T14:41:35;1.60;;;0.40;;
16296;SDS011;8256;56.144;13.394;2023-05-02T14:44:21;2.03;;;0.50;;
16296;SDS011;8256;56.144;13.394;2023-05-02T14:47:06;2.78;;;0.73;;
16296;SDS011;8256;56.144;13.394;2023-05-02T14:49:52;3.65;;;0.60;;
16296;SDS011;8256;56.144;13.394;2023-05-02T14:52:37;2.50;;;0.93;;
16296;SDS011;8256;56.144;13.394;2023-05-02T14:55:23;2.20;;;0.60;;
16296;SDS011;8256;56.144;13.394;2023-05-02T14:58:09;2.15;;;0.65;;
16296;SDS011;8256;56.144;13.394;2023-05-02T15:00:55;2.33;;;0.60;;
16296;SDS011;8256;56.144;13.394;2023-05-02T15:03:40;2.65;;;0.98;;
16296;SDS011;8256;56.144;13.394;2023-05-02T15:06:29;2.03;;;0.57;;
16296;SDS011;8256;56.144;13.394;2023-05-02T15:09:18;2.30;;;0.70;;
16296;SDS011;8256;56.144;13.394;2023-05-02T15:12:03;2.22;;;0.60;;
16296;SDS011;8256;56.144;13.394;2023-05-02T15:14:49;9.50;;;1.00;;
16296;SDS011;8256;56.144;13.394;2023-05-02T15:17:34;1.67;;;0.40;;
16296;SDS011;8256;56.144;13.394;2023-05-02T15:20:20;2.10;;;0.60;;
16296;SDS011;8256;56.144;13.394;2023-05-02T15:23:05;3.13;;;0.45;;
16296;SDS011;8256;56.144;13.394;2023-05-02T15:25:51;1.90;;;0.50;;
16296;SDS011;8256;56.144;13.394;2023-05-02T15:28:36;1.80;;;0.50;;
16296;SDS011;8256;56.144;13.394;2023-05-02T15:31:22;1.70;;;0.50;;
16296;SDS011;8256;56.144;13.394;2023-05-02T15:34:08;2.33;;;0.67;;
16296;SDS011;8256;56.144;13.394;2023-05-02T15:36:54;2.28;;;0.50;;
16296;SDS011;8256;56.144;13.394;2023-05-02T15:39:40;3.05;;;0.57;;
16296;SDS011;8256;56.144;13.394;2023-05-02T15:42:26;2.28;;;0.50;;
16296;SDS011;8256;56.144;13.394;2023-05-02T15:45:11;1.70;;;0.40;;
16296;SDS011;8256;56.144;13.394;2023-05-02T15:48:00;1.70;;;0.40;;
16296;SDS011;8256;56.144;13.394;2023-05-02T15:50:46;1.60;;;0.40;;
16296;SDS011;8256;56.144;13.394;2023-05-02T15:53:31;2.00;;;0.50;;
16296;SDS011;8256;56.144;13.394;2023-05-02T15:56:17;1.65;;;0.40;;
16296;SDS011;8256;56.144;13.394;2023-05-02T15:59:03;1.92;;;0.60;;
16296;SDS011;8256;56.144;13.394;2023-05-02T16:02:09;1.60;;;0.40;;
16296;SDS011;8256;56.144;13.394;2023-05-02T16:04:58;2.90;;;0.50;;
16296;SDS011;8256;56.144;13.394;2023-05-02T16:07:46;2.00;;;0.60;;
16296;SDS011;8256;56.144;13.394;2023-05-02T16:10:32;2.08;;;0.50;;
16296;SDS011;8256;56.144;13.394;2023-05-02T16:13:23;2.10;;;0.55;;
16296;SDS011;8256;56.144;13.394;2023-05-02T16:16:18;2.00;;;0.60;;
16296;SDS011;8256;56.144;13.394;2023-05-02T16:19:04;1.90;;;0.50;;
16296;SDS011;8256;56.144;13.394;2023-05-02T16:21:56;2.20;;;0.60;;
16296;SDS011;8256;56.144;13.394;2023-05-02T16:24:42;1.77;;;0.40;;
16296;SDS011;8256;56.144;13.394;2023-05-02T16:27:27;2.00;;;0.52;;
16296;SDS011;8256;56.144;13.394;2023-05-02T16:30:13;2.00;;;0.60;;
16296;SDS011;8256;56.144;13.394;2023-05-02T16:32:58;2.17;;;0.50;;
16296;SDS011;8256;56.144;13.394;2023-05-02T16:35:44;2.10;;;0.60;;
16296;SDS011;8256;56.144;13.394;2023-05-02T16:38:30;2.15;;;0.60;;
16296;SDS011;8256;56.144;13.394;2023-05-02T16:41:16;1.92;;;0.50;;
16296;SDS011;8256;56.144;13.394;2023-05-02T16:44:01;2.07;;;0.60;;
16296;SDS011;8256;56.144;13.394;2023-05-02T16:46:47;2.15;;;0.65;;
16296;SDS011;8256;56.144;13.394;2023-05-02T16:49:32;1.90;;;0.52;;
16296;SDS011;8256;56.144;13.394;2023-05-02T16:52:18;2.70;;;0.60;;
16296;SDS011;8256;56.144;13.394;2023-05-02T16:55:03;1.92;;;0.60;;
16296;SDS011;8256;56.144;13.394;2023-05-02T16:57:49;2.00;;;0.50;;
16296;SDS011;8256;56.144;13.394;2023-05-02T17:00:35;1.70;;;0.40;;
16296;SDS011;8256;56.144;13.394;2023-05-02T17:03:20;2.08;;;0.60;;
16296;SDS011;8256;56.144;13.394;2023-05-02T17:06:06;2.20;;;0.60;;
16296;SDS011;8256;56.144;13.394;2023-05-02T17:08:51;5.15;;;0.55;;
16296;SDS011;8256;56.144;13.394;2023-05-02T17:11:37;2.80;;;0.50;;